SÍGUENOS

APP INUMET

Disponible en Google Play

Productos aeronáuticos

  • SIGMET
  • METAR / SPECI
  • TAF
  • AIREP
  • Aviso de aeródromo
  • Pronárea
  • Carta superficie
Fecha : 12/12/2017
FTUY 03 SUMU 12 11 30
SUMU TAF 121130Z 1212/1312 03018KT CAVOK TX29/1218Z TN14/1309Z=
SULS TAF 121130Z 1212/1312 03018KT CAVOK TX29/1218Z TN14/1309Z=
SUAA TAF 121130Z 1212/1312 03018KT CAVOK TX29/1218Z TN14/1309Z=
SUCA TAF 121130Z 1212/1312 03018KT CAVOK TX29/1218Z TN14/1309Z=
SUDU TAF 121130Z 1212/1312 02010KT CAVOK TX30/1218Z TN13/1309Z TEMPO 1212/1220 02010G20KT=
SUSO TAF 121130Z 1212/1312 06010KT CAVOK TX33/1218Z TN17/1309Z TEMPO 1212/1220 06010G20KT=
SURV TAF 121130Z 1212/1312 06010KT CAVOK TX30/1218Z TN14/1309Z TEMPO 1212/1220 06010G20KT=

Predictor :


Mensajes TAF vigentes - Internacionales


Argentina
TAF SAME 121100Z 1212/1312 14010KT 9999 FEW040TCU TX33/1220Z TN20/1310Z BECMG 1221/1223 14015KT 8000 TSRA FEW040TCU FEW050CB
TAF SABE 121100Z 1212/1312 02010KT CAVOK TX29/1218Z TN20/1212Z BECMG 1219/1221 09010KT 9999 SCT035 BECMG 1303/1306 04010KT CAVOK
TAF SAEZ 121100Z 1212/1312 03012KT CAVOK TX30/1218Z TN20/1309Z BECMG 1300/1302 04006KT
TAF SACO 121100Z 1212/1312 02010KT 9999 SCT035 TX33/1218Z TN17/1310Z
TAF COR SAAR 121100Z 1212/1312 02010KT CAVOK TX34/1219Z TN20/1308Z BECMG 1223/1301 07010KT
Bolivia
TAF SLLP 121000Z 1212/1312 15010KT 9999 FEW017 TX16/1220Z TN04/1310Z TEMPO 1218/1221 FEW020CB BECMG 1301/1303 05005KT TEMPO 1304/1307 3000E VCFG FEW002
Brasil
TAF SBBR 1212/1312 01008KT 9999 SCT020 TX26/1217Z TN20/1307Z BECMG 1212/1214 SCT035 BECMG 1217/1218 SCT035 FEW040TCU PROB40 1218/1224 30007KT TSRA BKN025 FEW030CB BECMG 1300/1302 35005KT SCT030 PROB30 1303/1312 BKN010 RMK PDS
TAF SBPA 120900Z 1212/1312 13008KT CAVOK TX28/1217Z TN18/1304Z RMK PD N
TAF SBFI 120900Z 1212/1312 05009KT CAVOK TX31/1217Z TN22/1309Z PROB30 1216/1220 01006KT PROB30 1300/1306 10002KT RMK PDN
TAF SBFL 120900Z 1212/1312 03008KT 9999 SCT030 TN20/1300Z TX23/1312Z PROB30 1212/1215 15006KT FEW020 PROB30 1215/1220 08008KT BECMG 1308/1312 36 012KT BKN025 RMK PDN
TAF SBSP 120830Z 1212/1312 15010KT 9999 OVC007 TX20/1216Z TN16/1307Z BECMG 1212/1214 9999 BKN015 BECMG 1218/1220 OVC009 BECMG 1222/1224 13005KT OVC007 RMK PHH
TAF SBGR 120830Z 1212/1318 15010KT 8000 OVC009 TN16/1308Z TX25/1317Z BECMG 1212/1214 9999 BKN017 BECMG 1218/1220 BKN011 BECMG 1223/1301 13005KT OVC009 BECMG 1312/1314 9999 BKN020 PROB40 1315/1318 SCT020 RMK PHH
TAF SBRJ 120730Z 1212/1224 28010KT 7000 SCT015 TX26/1216Z TN22/1224Z BECMG 1213/1215 12010KT 5000 RA BR BKN015 BECMG 1216/1219 17010KT 7000 NSW BKN020 BECMG 1221/1223 10005KT BKN012 RMK PGZ
Chile
TAF SCCI 121050Z 1212/1312 28018KT 9999 FEW045 TN07/1308Z TX14/1218Z TEMPO 1212/1213 26018KT BECMG 1213/1215 29025G35KT FEW045 PROB40 TEMPO 1215/1222 29030G45KT BECMG 1222/1300 30018G28KT BECMG 1308/1310 30022G40KT
TAF SCEL 121015Z 1212/1312 17008KT 9999 OVC012 TX23/1219Z TN11/1310Z BECMG 1213/1215 SCT015 BKN020 BECMG 1217/1219 SCT030 TEMPO 1219/1222 20013KT CAVOK BECMG 1300/1302 16006KT BKN020 BECMG 1306/1308 OVC016
Ecuador
SEQM 120835Z 1212/1312 VRB03KT 9999 SCT030 SCT090 FM121900 34014KT 9999 BKN030 BKN100 PROB40 TEMPO 1220/1222 TSRA FEW026CB BKN030 BKN100 FM130000 02004KT 8000 -RA SCT010 BKN026 BKN090 FM130600 00000KT 9999 SCT005 BKN016 TX22/1219Z TN11/1311Z
EEUU
KLGA 121343Z 1214/1318 18011G19KT P6SM VCSH SCT030 BKN050 TEMPO 1214/1217 BKN030 FM121700 20012G19KT P6SM VCSH BKN030 BKN050 FM121900 25013G20KT P6SM BKN030 BKN050 FM130000 28017G25KT P6SM BKN040 FM130300 28020G30KT P6SM -SHSN BKN040 FM130700 28020G34KT P6SM SCT040 BKN100 FM131300 29025G38KT P6SM BKN100
KJFK 121343Z 1214/1318 17013G20KT P6SM VCSH SCT030 BKN050 TEMPO 1214/1217 BKN030 FM121700 23013G21KT P6SM VCSH BKN030 BKN050 FM130000 27018G27KT P6SM BKN040 FM130300 29020G32KT P6SM -SHSN BKN040 FM130700 28020G34KT P6SM SCT040 BKN100 FM131300 29025G38KT P6SM BKN100
KDCA 121124Z 1212/1318 19007KT P6SM OVC070 FM121500 23008KT P6SM BKN070 FM121800 29013G23KT P6SM BKN035 FM122100 31016G34KT P6SM BKN050 FM131200 28014G23KT P6SM FEW080
KIAD 121124Z 1212/1318 19008KT P6SM OVC080 FM121500 26010KT P6SM BKN120 FM121800 30015G26KT P6SM BKN045 FM122100 31015G31KT P6SM VCSH BKN045 FM130600 29016G30KT P6SM BKN045 FM131200 28014G23KT P6SM FEW080
KMIA 121120Z 1212/1318 VRB03KT P6SM SKC FM121500 27010KT P6SM FEW030 FM130000 27006KT P6SM SKC FM130500 31006KT P6SM SKC FM131400 34010KT P6SM SKC
Francia
TAF LFPO 111700Z 1118/1224 30015G25KT 9999 BKN008 BKN012 TEMPO 1118/1122 -RA BKN006 BKN016 PROB30 TEMPO 1118/1122 4000 -SHRASN BKN005 BECMG 1122/1124 30010KT BECMG 1200/1203 BKN016 BECMG 1206/1209 SCT025 BECMG 1217/1220 BKN014 TEMPO 1222/1224 BKN008
Paraguay
TAF SGAS 120930Z 1212/1312 15008KT CAVOK TX36/1218Z TN22/1309Z BECMG 1217/1220 VRB08KT 9999 SCT033 BECMG 1221/1223 05008KT CAVOK
Venezuela
TAF SVMI 120400Z 1206/1306 00000KT 9999 FEW016 SCT070 TX33/18Z TN24/08Z BECMG 1208/1212 SCT016

* Datos extraidos del Text DataServer de la NOAA (NOAA TEXT DATA SERVER)

Instituto Uruguayo de Meteorología

Dr. Javier Barrios Amorín 1488 - CP 11200
Mesa Central (598) 1895 - Desde el interior 21895

Montevideo - Uruguay